Time;durP1;ratioP1;P1;durP2;ratioP2;P2;SDS_P1;SDS_P2;PMS_P1;PMS_P2;Temp;Humidity;BMP_temperature;BMP_pressure;BME280_temperature;BME280_humidity;BME280_pressure;Samples;Min_cycle;Max_cycle;Signal;HPM_P1;HPM_P2
2021/07/05 00:04:04;;;;;;;1.97;1.70;;;;;15.00;100453.00;;;;10492441;28;20275;-79
2021/07/05 00:09:06;;;;;;;3.73;1.90;;;;;14.80;100433.00;;;;10475945;28;20251;-79
2021/07/05 00:14:08;;;;;;;3.13;2.00;;;;;14.80;100433.00;;;;10485221;28;20205;-79
2021/07/05 00:19:10;;;;;;;4.90;2.33;;;;;14.80;100414.00;;;;10435715;28;20190;-79
2021/07/05 00:24:12;;;;;;;5.23;2.47;;;;;14.80;100419.00;;;;10469169;28;20200;-78
2021/07/05 00:29:14;;;;;;;4.53;2.47;;;;;14.80;100423.00;;;;10491433;28;20200;-77
2021/07/05 00:34:16;;;;;;;3.43;2.83;;;;;14.80;100419.00;;;;10490586;28;20216;-77
2021/07/05 00:39:18;;;;;;;4.93;3.13;;;;;14.90;100423.00;;;;10506870;28;20205;-78
2021/07/05 00:44:20;;;;;;;4.87;2.67;;;;;14.90;100423.00;;;;10524374;28;20200;-77
2021/07/05 00:49:22;;;;;;;5.07;3.00;;;;;14.90;100435.00;;;;10507165;28;20192;-77
2021/07/05 00:54:36;;;;;;;6.83;2.90;;;;;15.00;100417.00;;;;10523775;28;20525;-77
2021/07/05 00:59:38;;;;;;;6.57;3.37;;;;;15.00;100398.00;;;;10505924;28;20242;-77
2021/07/05 01:04:40;;;;;;;7.20;2.87;;;;;15.00;100396.00;;;;10496633;28;20594;-77
2021/07/05 01:09:43;;;;;;;3.90;2.60;;;;;15.00;100401.00;;;;10497418;28;20205;-77
2021/07/05 01:14:45;;;;;;;6.47;2.87;;;;;14.90;100409.00;;;;10488921;28;20618;-77
2021/07/05 01:19:49;;;;;;;4.63;3.27;;;;;14.80;100414.00;;;;10548185;28;20525;-78
2021/07/05 01:24:51;;;;;;;5.97;2.90;;;;;14.80;100404.00;;;;10491076;28;20229;-77
2021/07/05 01:29:53;;;;;;;4.97;2.83;;;;;14.80;100411.00;;;;10487602;28;20215;-77
2021/07/05 01:34:54;;;;;;;6.73;3.50;;;;;14.70;100415.00;;;;10505250;28;20214;-77
2021/07/05 01:39:57;;;;;;;7.27;3.50;;;;;14.70;100413.00;;;;10472745;28;20204;-78
2021/07/05 01:45:00;;;;;;;8.40;3.50;;;;;14.60;100414.00;;;;10488159;28;20186;-78
2021/07/05 01:50:03;;;;;;;9.73;3.53;;;;;14.60;100410.00;;;;10454672;28;20202;-78
2021/07/05 01:55:06;;;;;;;10.20;3.63;;;;;14.50;100403.00;;;;10489508;28;20213;-78
2021/07/05 02:00:18;;;;;;;6.13;3.53;;;;;14.50;100410.00;;;;10505410;28;20186;-77
2021/07/05 02:05:21;;;;;;;7.93;3.47;;;;;14.50;100408.00;;;;10470603;28;20197;-77
2021/07/05 02:10:32;;;;;;;7.20;3.20;;;;;14.50;100412.00;;;;10470139;28;20205;-77
2021/07/05 02:15:34;;;;;;;9.87;3.93;;;;;14.50;100409.00;;;;10486521;28;20186;-77
2021/07/05 02:20:37;;;;;;;9.30;3.47;;;;;14.40;100412.00;;;;10485903;28;20552;-77
2021/07/05 02:25:39;;;;;;;12.67;3.53;;;;;14.40;100402.00;;;;10453001;28;20189;-77
2021/07/05 02:30:44;;;;;;;8.40;4.03;;;;;14.40;100401.00;;;;10468963;28;20209;-77
2021/07/05 02:35:46;;;;;;;12.00;4.03;;;;;14.40;100399.00;;;;10477133;28;20217;-77
2021/07/05 02:40:51;;;;;;;8.83;4.10;;;;;14.40;100405.00;;;;10451455;28;20243;-77
2021/07/05 02:45:55;;;;;;;9.60;4.07;;;;;14.40;100392.00;;;;10456991;28;20655;-77
2021/07/05 02:51:04;;;;;;;6.60;4.00;;;;;14.30;100392.00;;;;10509323;28;20708;-77
2021/07/05 02:56:06;;;;;;;7.20;3.80;;;;;14.40;100394.00;;;;10525365;28;20551;-76
2021/07/05 03:01:08;;;;;;;7.73;3.63;;;;;14.40;100397.00;;;;10542898;28;20889;-77
2021/07/05 03:06:10;;;;;;;7.00;3.60;;;;;14.40;100400.00;;;;10508325;28;20192;-76
2021/07/05 03:11:13;;;;;;;7.50;3.53;;;;;14.40;100387.00;;;;10508439;28;20230;-77
2021/07/05 03:16:16;;;;;;;10.20;4.20;;;;;14.40;100377.00;;;;10475337;28;20203;-77
2021/07/05 03:21:18;;;;;;;7.53;3.40;;;;;14.40;100372.00;;;;10475440;28;20652;-78
2021/07/05 03:26:20;;;;;;;9.40;4.00;;;;;14.50;100376.00;;;;10482109;28;20645;-77
2021/07/05 03:31:21;;;;;;;7.13;3.70;;;;;14.40;100382.00;;;;10450141;28;20213;-77
2021/07/05 03:36:23;;;;;;;12.63;4.80;;;;;14.40;100381.00;;;;10466436;28;20252;-77
2021/07/05 03:41:25;;;;;;;9.47;4.33;;;;;14.50;100376.00;;;;10466351;28;20189;-77
2021/07/05 03:46:27;;;;;;;8.63;4.20;;;;;14.50;100375.00;;;;10500543;28;20201;-77
2021/07/05 03:51:30;;;;;;;10.67;3.93;;;;;14.50;100375.00;;;;10449302;28;20209;-77
2021/07/05 03:56:31;;;;;;;13.33;4.50;;;;;14.50;100378.00;;;;10460804;28;20204;-77
2021/07/05 04:01:33;;;;;;;8.77;4.50;;;;;14.50;100368.00;;;;10482080;28;20197;-77
2021/07/05 04:06:35;;;;;;;5.73;4.00;;;;;14.50;100381.00;;;;10448444;28;20707;-77
2021/07/05 04:11:37;;;;;;;6.03;3.60;;;;;14.50;100371.00;;;;10448534;28;20205;-77
2021/07/05 04:16:39;;;;;;;7.50;3.47;;;;;14.60;100377.00;;;;10465326;28;20333;-77
2021/07/05 04:21:41;;;;;;;8.63;3.87;;;;;14.70;100377.00;;;;10448634;28;20193;-77
2021/07/05 04:26:43;;;;;;;11.83;4.27;;;;;14.90;100372.00;;;;10490016;28;20197;-77
2021/07/05 04:31:45;;;;;;;8.57;4.50;;;;;15.10;100372.00;;;;10506330;28;20227;-77
2021/07/05 04:36:47;;;;;;;10.20;4.73;;;;;15.20;100366.00;;;;10492057;28;20197;-78
2021/07/05 04:41:49;;;;;;;11.50;4.63;;;;;15.20;100357.00;;;;10498888;28;20205;-78
2021/07/05 04:46:51;;;;;;;9.03;4.23;;;;;15.20;100343.00;;;;10482553;28;20189;-78
2021/07/05 04:51:53;;;;;;;5.97;4.40;;;;;15.30;100347.00;;;;10498544;28;20212;-78
2021/07/05 04:56:55;;;;;;;18.93;4.83;;;;;15.30;100346.00;;;;10499014;28;20197;-78
2021/07/05 05:01:57;;;;;;;13.70;5.00;;;;;15.30;100344.00;;;;10466964;28;20211;-78
2021/07/05 05:06:59;;;;;;;8.87;4.53;;;;;15.20;100342.00;;;;10490342;28;20212;-78
2021/07/05 05:12:01;;;;;;;8.30;4.67;;;;;15.20;100343.00;;;;10473557;28;20232;-78
2021/07/05 05:17:05;;;;;;;11.10;5.60;;;;;15.30;100344.00;;;;10489509;28;20302;-78
2021/07/05 05:22:08;;;;;;;11.63;5.17;;;;;15.40;100340.00;;;;10473061;28;20189;-78
2021/07/05 05:27:10;;;;;;;9.37;5.27;;;;;15.40;100348.00;;;;10489521;28;20615;-78
2021/07/05 05:32:12;;;;;;;13.27;4.97;;;;;15.60;100342.00;;;;10472334;28;20221;-78
2021/07/05 05:37:14;;;;;;;13.43;5.07;;;;;15.90;100336.00;;;;10471868;28;20193;-78
2021/07/05 05:42:16;;;;;;;9.80;5.20;;;;;16.00;100343.00;;;;10472491;28;20193;-78
2021/07/05 05:47:18;;;;;;;7.13;4.07;;;;;16.10;100349.00;;;;10487260;28;20182;-78
2021/07/05 05:52:20;;;;;;;11.40;3.83;;;;;16.10;100346.00;;;;10438942;28;20218;-77
2021/07/05 05:57:25;;;;;;;11.43;4.00;;;;;16.10;100343.00;;;;10471237;28;20182;-77
2021/07/05 06:02:28;;;;;;;11.90;3.50;;;;;16.20;100348.00;;;;10454954;28;20661;-77
2021/07/05 06:07:30;;;;;;;5.30;3.10;;;;;16.10;100353.00;;;;10471481;28;20197;-78
2021/07/05 06:12:32;;;;;;;8.67;3.20;;;;;16.00;100342.00;;;;10470639;28;20216;-78
2021/07/05 06:17:35;;;;;;;5.67;3.23;;;;;16.00;100346.00;;;;10487503;28;20201;-79
2021/07/05 06:22:48;;;;;;;9.90;3.40;;;;;16.00;100352.00;;;;10471149;28;20235;-77
2021/07/05 06:27:51;;;;;;;11.83;3.60;;;;;16.10;100366.00;;;;10470671;28;20579;-78
2021/07/05 06:32:53;;;;;;;16.90;3.40;;;;;16.00;100365.00;;;;10470248;28;20217;-78
2021/07/05 06:37:55;;;;;;;18.90;3.67;;;;;16.10;100360.00;;;;10469997;28;20204;-78
2021/07/05 06:42:58;;;;;;;6.83;2.70;;;;;16.10;100358.00;;;;10436863;28;20202;-78
2021/07/05 06:48:00;;;;;;;8.03;3.00;;;;;16.30;100365.00;;;;10452680;28;20217;-78
2021/07/05 06:53:04;;;;;;;3.92;2.83;;;;;16.50;100360.00;;;;10505117;28;20204;-78
2021/07/05 06:58:06;;;;;;;7.33;2.67;;;;;16.40;100372.00;;;;10535954;28;20252;-78
2021/07/05 07:03:08;;;;;;;6.63;2.83;;;;;16.30;100369.00;;;;10535342;28;20184;-78
2021/07/05 07:08:11;;;;;;;9.00;2.83;;;;;16.40;100380.00;;;;10535993;28;20196;-79
2021/07/05 07:13:13;;;;;;;11.40;3.47;;;;;16.30;100379.00;;;;10548159;28;20335;-79
2021/07/05 07:23:32;;;;;;;4.47;2.90;;;;;16.40;100393.00;;;;10481561;28;20204;-79
2021/07/05 07:28:34;;;;;;;6.28;3.10;;;;;16.40;100391.00;;;;10469107;28;20225;-80
2021/07/05 07:33:36;;;;;;;6.20;3.13;;;;;16.40;100390.00;;;;10435844;28;20248;-79
2021/07/05 07:38:43;;;;;;;8.52;3.42;;;;;16.40;100403.00;;;;10484882;28;20203;-80
2021/07/05 07:43:45;;;;;;;7.55;2.97;;;;;16.40;100397.00;;;;10466964;28;20196;-80
2021/07/05 07:48:47;;;;;;;6.93;3.47;;;;;16.60;100399.00;;;;10468349;28;20204;-81
2021/07/05 07:53:49;;;;;;;9.05;3.30;;;;;16.60;100404.00;;;;10470084;28;20216;-80
2021/07/05 07:58:51;;;;;;;7.70;3.00;;;;;16.50;100425.00;;;;10478269;28;20200;-81
2021/07/05 08:03:53;;;;;;;6.67;2.53;;;;;16.10;100421.00;;;;10507270;28;20239;-79
2021/07/05 08:08:55;;;;;;;11.40;3.03;;;;;15.80;100413.00;;;;10492393;28;20192;-81
2021/07/05 08:13:59;;;;;;;4.50;2.67;;;;;16.00;100391.00;;;;10491218;28;20239;-79
2021/07/05 08:19:02;;;;;;;6.85;2.70;;;;;16.50;100394.00;;;;10491176;28;20189;-79
2021/07/05 08:24:05;;;;;;;3.83;2.30;;;;;16.60;100411.00;;;;10502888;28;20209;-79
2021/07/05 08:29:07;;;;;;;2.78;2.38;;;;;16.90;100413.00;;;;10449963;28;20695;-78
2021/07/05 08:34:09;;;;;;;5.30;3.00;;;;;17.50;100414.00;;;;10450283;28;20672;-78
2021/07/05 08:39:13;;;;;;;7.13;3.10;;;;;18.80;100407.00;;;;10465801;28;20890;-78
2021/07/05 08:44:15;;;;;;;4.18;2.40;;;;;19.30;100411.00;;;;10466319;28;20675;-78
2021/07/05 08:49:17;;;;;;;3.22;2.25;;;;;19.50;100411.00;;;;10465469;28;20247;-78
2021/07/05 08:54:19;;;;;;;4.90;2.50;;;;;20.20;100419.00;;;;10500856;28;20209;-78
2021/07/05 08:59:22;;;;;;;3.53;2.08;;;;;20.70;100409.00;;;;10507199;28;20196;-78
2021/07/05 09:04:24;;;;;;;4.78;2.10;;;;;23.00;100403.00;;;;10487771;28;20188;-78
2021/07/05 09:09:27;;;;;;;5.30;2.00;;;;;22.80;100396.00;;;;10465822;28;20213;-78
2021/07/05 09:14:29;;;;;;;4.40;2.25;;;;;22.80;100393.00;;;;10448995;28;20205;-78
2021/07/05 09:19:33;;;;;;;4.40;1.80;;;;;22.50;100392.00;;;;10465121;28;20552;-79
2021/07/05 09:24:40;;;;;;;4.05;2.35;;;;;22.50;100391.00;;;;10473831;28;20285;-79
2021/07/05 09:29:42;;;;;;;4.07;1.85;;;;;22.30;100380.00;;;;10440638;28;20272;-79
2021/07/05 09:34:44;;;;;;;4.22;1.92;;;;;22.20;100373.00;;;;10482196;28;20236;-79
2021/07/05 09:40:08;;;;;;;3.45;2.00;;;;;22.30;100374.00;;;;10498057;28;20197;-80
2021/07/05 09:45:15;;;;;;;5.78;2.65;;;;;22.30;100359.00;;;;10549356;28;20192;-80
2021/07/05 09:50:20;;;;;;;4.25;1.98;;;;;22.50;100349.00;;;;10507447;28;20186;-79
2021/07/05 09:55:34;;;;;;;4.22;2.28;;;;;22.60;100354.00;;;;10442675;28;20221;-80
2021/07/05 10:00:39;;;;;;;3.42;1.83;;;;;22.00;100362.00;;;;10472608;28;20228;-80
2021/07/05 10:05:51;;;;;;;4.13;1.92;;;;;22.10;100349.00;;;;10489006;28;20209;-81
2021/07/05 10:11:03;;;;;;;7.38;2.10;;;;;24.50;100335.00;;;;10472089;28;20220;-81
2021/07/05 10:16:10;;;;;;;5.03;3.72;;;;;23.50;100338.00;;;;10471368;28;20189;-80
2021/07/05 10:21:12;;;;;;;3.35;1.83;;;;;22.00;100351.00;;;;10454786;28;20200;-80
2021/07/05 10:26:15;;;;;;;9.32;2.15;;;;;22.10;100346.00;;;;10522079;28;20302;-81
2021/07/05 10:31:17;;;;;;;3.63;1.90;;;;;22.90;100338.00;;;;10511907;28;20192;-79
2021/07/05 10:36:21;;;;;;;2.40;2.10;;;;;22.90;100321.00;;;;10485318;28;20209;-80
2021/07/05 10:41:33;;;;;;;6.10;2.00;;;;;22.20;100332.00;;;;10479391;28;20209;-79
2021/07/05 10:46:49;;;;;;;3.88;1.88;;;;;21.60;100320.00;;;;10494932;28;20197;-78
2021/07/05 10:51:51;;;;;;;3.85;1.83;;;;;21.00;100339.00;;;;10510225;28;20208;-79
2021/07/05 10:56:53;;;;;;;2.92;1.80;;;;;20.90;100338.00;;;;10485819;28;20208;-79
2021/07/05 11:01:55;;;;;;;4.15;1.90;;;;;22.00;100336.00;;;;10485333;28;20208;-78
2021/07/05 11:06:59;;;;;;;1.85;1.52;;;;;22.80;100331.00;;;;10485542;28;20838;-78
2021/07/05 11:12:01;;;;;;;2.00;1.55;;;;;22.60;100334.00;;;;10468815;28;20279;-78
2021/07/05 11:17:07;;;;;;;3.50;1.70;;;;;22.80;100323.00;;;;10451881;28;20196;-79
2021/07/05 11:22:25;;;;;;;5.65;1.80;;;;;22.40;100323.00;;;;10484764;28;20268;-79
2021/07/05 11:27:47;;;;;;;3.75;1.90;;;;;22.10;100319.00;;;;10476500;28;20216;-79
2021/07/05 11:32:56;;;;;;;1.65;1.52;;;;;22.60;100303.00;;;;10492404;28;20229;-79
2021/07/05 11:38:24;;;;;;;2.88;1.50;;;;;24.20;100301.00;;;;10476715;28;20201;-79
2021/07/05 11:43:47;;;;;;;2.45;1.48;;;;;25.50;100288.00;;;;10508681;28;20185;-79
2021/07/05 11:48:51;;;;;;;2.53;1.50;;;;;26.40;100291.00;;;;10476113;28;20542;-78
2021/07/05 11:53:56;;;;;;;3.47;1.33;;;;;25.20;100286.00;;;;10502552;28;20202;-79
2021/07/05 11:58:59;;;;;;;2.35;1.23;;;;;24.60;100286.00;;;;10491311;28;20199;-79
2021/07/05 12:04:05;;;;;;;0.80;0.75;;;;;23.80;100287.00;;;;10492343;28;20734;-79
2021/07/05 12:09:08;;;;;;;1.08;0.93;;;;;24.40;100280.00;;;;10509131;28;20216;-80
2021/07/05 12:14:19;;;;;;;1.33;0.95;;;;;25.40;100273.00;;;;10508174;28;20207;-78
2021/07/05 12:19:22;;;;;;;2.38;1.10;;;;;26.10;100266.00;;;;10491500;28;20189;-79
2021/07/05 12:24:30;;;;;;;3.05;1.30;;;;;26.30;100260.00;;;;10487909;28;20243;-80
2021/07/05 12:29:42;;;;;;;1.35;0.98;;;;;26.90;100262.00;;;;10466930;28;20196;-80
2021/07/05 12:35:03;;;;;;;0.88;0.80;;;;;26.80;100257.00;;;;10465372;28;20229;-80
2021/07/05 12:40:07;;;;;;;1.08;0.50;;;;;27.00;100267.00;;;;10482194;28;20359;-80
2021/07/05 12:45:18;;;;;;;0.60;0.50;;;;;27.10;100272.00;;;;10450033;28;20201;-80
2021/07/05 12:50:33;;;;;;;0.90;0.75;;;;;27.30;100261.00;;;;10482548;28;20244;-79
2021/07/05 12:55:38;;;;;;;1.23;0.70;;;;;28.00;100269.00;;;;10511232;28;20217;-80
2021/07/05 13:00:48;;;;;;;2.17;0.85;;;;;27.70;100270.00;;;;10481122;28;20199;-79
2021/07/05 13:05:50;;;;;;;1.77;0.93;;;;;28.00;100262.00;;;;10474130;28;20189;-79
2021/07/05 13:10:52;;;;;;;3.47;1.00;;;;;26.20;100249.00;;;;10456714;28;20193;-80
2021/07/05 13:15:54;;;;;;;1.38;0.70;;;;;28.90;100250.00;;;;10506748;28;20272;-79
2021/07/05 13:21:00;;;;;;;1.10;0.90;;;;;29.60;100244.00;;;;10503139;28;20204;-80
2021/07/05 13:26:02;;;;;;;1.00;0.90;;;;;30.20;100231.00;;;;10491086;28;20212;-80
2021/07/05 13:31:04;;;;;;;1.90;1.13;;;;;29.80;100239.00;;;;10496581;28;20197;-80
2021/07/05 13:36:06;;;;;;;1.95;0.77;;;;;27.70;100237.00;;;;10473861;28;20248;-80
2021/07/05 13:41:13;;;;;;;1.70;1.10;;;;;25.90;100257.00;;;;10497444;28;20213;-78
2021/07/05 13:46:15;;;;;;;0.90;0.90;;;;;24.00;100246.00;;;;10498077;28;20192;-80
2021/07/05 13:51:17;;;;;;;1.52;1.10;;;;;22.90;100256.00;;;;10514364;28;20582;-79
2021/07/05 13:56:22;;;;;;;3.85;1.50;;;;;22.30;100256.00;;;;10511096;28;20209;-78
2021/07/05 14:01:28;;;;;;;2.13;1.70;;;;;22.10;100266.00;;;;10530790;28;20276;-79
2021/07/05 14:06:30;;;;;;;3.65;1.63;;;;;21.70;100284.00;;;;10497154;28;20276;-78
2021/07/05 14:11:32;;;;;;;3.33;1.48;;;;;21.40;100279.00;;;;10529948;28;20197;-79
2021/07/05 14:16:35;;;;;;;2.90;1.77;;;;;21.30;100280.00;;;;10512990;28;20252;-79
2021/07/05 14:21:38;;;;;;;2.45;1.80;;;;;21.20;100277.00;;;;10513065;28;20743;-79
2021/07/05 14:26:39;;;;;;;3.50;1.67;;;;;21.00;100282.00;;;;10587948;28;20524;-79
2021/07/05 14:31:41;;;;;;;2.72;1.50;;;;;20.80;100267.00;;;;10571671;28;20184;-78
2021/07/05 14:36:43;;;;;;;6.78;1.83;;;;;20.70;100286.00;;;;10470859;28;20193;-78
2021/07/05 14:41:45;;;;;;;2.67;1.30;;;;;20.60;100283.00;;;;10447073;28;20213;-78
2021/07/05 14:46:47;;;;;;;2.45;1.52;;;;;20.60;100284.00;;;;10471043;28;20580;-79
2021/07/05 14:51:49;;;;;;;5.78;1.77;;;;;20.40;100265.00;;;;10471165;28;20193;-79
2021/07/05 14:56:51;;;;;;;3.15;1.40;;;;;20.60;100276.00;;;;10508193;28;20201;-79
2021/07/05 15:01:53;;;;;;;1.83;1.25;;;;;20.80;100263.00;;;;10531297;28;20196;-79
2021/07/05 15:06:55;;;;;;;2.92;1.60;;;;;20.70;100260.00;;;;10486564;28;20664;-79
2021/07/05 15:11:57;;;;;;;3.42;1.60;;;;;20.80;100263.00;;;;10505771;28;20559;-79
2021/07/05 15:16:59;;;;;;;3.17;1.40;;;;;21.10;100254.00;;;;10511951;28;20195;-79
2021/07/05 15:22:03;;;;;;;3.58;1.38;;;;;21.30;100245.00;;;;10487534;28;20193;-78
2021/07/05 15:27:06;;;;;;;1.90;1.30;;;;;21.50;100248.00;;;;10527588;28;20650;-79
2021/07/05 15:32:08;;;;;;;2.92;1.50;;;;;22.00;100232.00;;;;10493493;28;20225;-79
2021/07/05 15:37:10;;;;;;;2.83;1.10;;;;;21.80;100242.00;;;;10510668;28;20591;-79
2021/07/05 15:42:12;;;;;;;2.45;1.35;;;;;21.70;100234.00;;;;10510626;28;20193;-79
2021/07/05 15:47:14;;;;;;;1.75;1.30;;;;;21.90;100228.00;;;;10526341;28;20552;-79
2021/07/05 15:52:17;;;;;;;2.20;1.13;;;;;22.10;100224.00;;;;10466813;28;20715;-79
2021/07/05 15:57:19;;;;;;;1.13;1.02;;;;;22.00;100229.00;;;;10509960;28;20200;-79
2021/07/05 16:02:35;;;;;;;1.65;1.05;;;;;21.90;100225.00;;;;10478478;28;20687;-79
2021/07/05 16:07:38;;;;;;;4.18;1.20;;;;;21.90;100233.00;;;;10513502;28;20200;-79
2021/07/05 16:12:41;;;;;;;1.80;1.30;;;;;22.20;100227.00;;;;10467689;28;20217;-78
2021/07/05 16:17:44;;;;;;;1.60;1.17;;;;;22.40;100218.00;;;;10467144;28;20198;-79
2021/07/05 16:22:46;;;;;;;2.95;1.20;;;;;22.20;100220.00;;;;10448749;28;20200;-79
2021/07/05 16:27:49;;;;;;;1.98;1.30;;;;;21.90;100210.00;;;;10524500;28;20189;-79
2021/07/05 16:32:50;;;;;;;2.30;1.00;;;;;22.00;100211.00;;;;10467556;28;20209;-79
2021/07/05 16:37:52;;;;;;;2.05;1.50;;;;;22.10;100208.00;;;;10466619;28;20205;-80
2021/07/05 16:42:55;;;;;;;1.35;1.10;;;;;21.90;100194.00;;;;10483057;28;20186;-80
2021/07/05 16:47:59;;;;;;;1.30;1.20;;;;;21.70;100214.00;;;;10502555;28;20197;-80
2021/07/05 16:53:01;;;;;;;3.40;1.00;;;;;21.60;100215.00;;;;10500452;28;20729;-79
2021/07/05 16:58:03;;;;;;;1.38;1.20;;;;;22.20;100192.00;;;;10466365;28;20197;-79
2021/07/05 17:03:10;;;;;;;1.38;1.05;;;;;22.60;100198.00;;;;10483351;28;20694;-80
2021/07/05 17:08:12;;;;;;;1.80;0.88;;;;;22.80;100189.00;;;;10466377;28;20264;-79
2021/07/05 17:13:16;;;;;;;1.02;0.90;;;;;22.70;100189.00;;;;10482668;28;20210;-79
2021/07/05 17:18:18;;;;;;;1.63;0.98;;;;;22.60;100193.00;;;;10465948;28;20190;-80
2021/07/05 17:23:20;;;;;;;2.58;0.70;;;;;22.20;100191.00;;;;10478671;28;20197;-79
2021/07/05 17:28:22;;;;;;;1.60;1.10;;;;;22.10;100191.00;;;;10506602;28;20204;-79
2021/07/05 17:33:24;;;;;;;1.35;0.98;;;;;22.00;100190.00;;;;10474093;28;20213;-78
2021/07/05 17:38:26;;;;;;;1.05;1.00;;;;;21.90;100184.00;;;;10491221;28;20205;-79
2021/07/05 17:43:31;;;;;;;2.17;1.77;;;;;21.70;100182.00;;;;10492171;28;20594;-79
2021/07/05 17:48:33;;;;;;;2.38;1.20;;;;;21.30;100192.00;;;;10498154;28;20193;-78
2021/07/05 17:53:40;;;;;;;2.08;1.20;;;;;21.00;100192.00;;;;10481483;28;20213;-78
2021/07/05 17:58:42;;;;;;;4.35;1.42;;;;;21.10;100182.00;;;;10498161;28;20282;-78
2021/07/05 18:03:44;;;;;;;2.15;1.40;;;;;21.20;100179.00;;;;10471433;28;20186;-79
2021/07/05 18:08:49;;;;;;;2.38;1.33;;;;;21.20;100170.00;;;;10488518;28;20205;-79
2021/07/05 18:13:51;;;;;;;3.00;1.90;;;;;21.20;100169.00;;;;10504721;28;20224;-79
2021/07/05 18:18:53;;;;;;;4.97;1.23;;;;;21.00;100175.00;;;;10512289;28;20205;-79
2021/07/05 18:23:56;;;;;;;1.33;1.23;;;;;20.80;100177.00;;;;10481496;28;20193;-80
2021/07/05 18:28:58;;;;;;;3.25;1.30;;;;;20.70;100178.00;;;;10471436;28;20224;-79
2021/07/05 18:34:00;;;;;;;1.40;1.30;;;;;20.50;100178.00;;;;10487304;28;20212;-79
2021/07/05 18:39:03;;;;;;;1.50;1.40;;;;;20.40;100166.00;;;;10454866;28;20201;-79
2021/07/05 18:44:06;;;;;;;3.72;1.40;;;;;20.50;100162.00;;;;10454548;28;20197;-79
2021/07/05 18:49:08;;;;;;;3.22;1.50;;;;;20.50;100165.00;;;;10471816;28;20190;-78
2021/07/05 18:54:10;;;;;;;1.30;1.20;;;;;20.30;100162.00;;;;10488037;28;20266;-79
2021/07/05 18:59:12;;;;;;;2.13;1.83;;;;;20.20;100154.00;;;;10477988;28;20663;-78
2021/07/05 19:04:15;;;;;;;3.88;1.95;;;;;20.00;100146.00;;;;10511626;28;20176;-78
2021/07/05 19:09:17;;;;;;;2.60;2.00;;;;;19.90;100127.00;;;;10495075;28;20201;-78
2021/07/05 19:14:18;;;;;;;2.08;1.63;;;;;19.80;100117.00;;;;10511315;28;20258;-80
2021/07/05 19:19:20;;;;;;;1.70;1.60;;;;;19.60;100120.00;;;;10528102;28;20234;-79
2021/07/05 19:24:23;;;;;;;1.60;1.50;;;;;19.50;100117.00;;;;10491672;28;20201;-79
2021/07/05 19:29:25;;;;;;;3.78;1.55;;;;;19.50;100116.00;;;;10464672;28;20243;-78
2021/07/05 19:34:27;;;;;;;2.90;1.58;;;;;19.40;100114.00;;;;10468858;28;20217;-79
2021/07/05 19:39:33;;;;;;;2.97;1.58;;;;;19.30;100116.00;;;;10452511;28;20209;-78
2021/07/05 19:44:36;;;;;;;1.67;1.40;;;;;19.20;100099.00;;;;10468862;28;20181;-79
2021/07/05 19:49:39;;;;;;;1.70;1.60;;;;;19.10;100098.00;;;;10435724;28;20194;-79
2021/07/05 19:54:40;;;;;;;3.55;1.80;;;;;19.00;100091.00;;;;10489917;28;20196;-78
2021/07/05 19:59:42;;;;;;;1.67;1.55;;;;;19.00;100094.00;;;;10493568;28;20250;-78
2021/07/05 20:04:44;;;;;;;2.03;1.63;;;;;18.90;100094.00;;;;10492883;28;20195;-79
2021/07/05 20:09:46;;;;;;;1.90;1.63;;;;;18.90;100097.00;;;;10492645;28;20552;-78
2021/07/05 20:14:48;;;;;;;3.85;1.77;;;;;18.80;100095.00;;;;10525711;28;20212;-78
2021/07/05 20:19:50;;;;;;;2.13;1.63;;;;;18.80;100081.00;;;;10496195;28;20197;-78
2021/07/05 20:24:52;;;;;;;1.55;1.45;;;;;18.80;100087.00;;;;10517172;28;20184;-78
2021/07/05 20:29:54;;;;;;;3.33;1.70;;;;;18.80;100106.00;;;;10517012;28;20196;-79
2021/07/05 20:34:56;;;;;;;1.40;1.30;;;;;18.80;100105.00;;;;10567005;28;20207;-79
2021/07/05 20:39:58;;;;;;;2.28;1.63;;;;;18.80;100118.00;;;;10567169;28;20196;-79
2021/07/05 20:45:01;;;;;;;1.60;1.42;;;;;18.80;100119.00;;;;10549775;28;20184;-79
2021/07/05 20:50:04;;;;;;;2.17;1.63;;;;;18.80;100110.00;;;;10533591;28;20192;-78
2021/07/05 20:55:07;;;;;;;1.55;1.45;;;;;18.80;100100.00;;;;10482885;28;20267;-78
2021/07/05 21:00:11;;;;;;;1.30;1.20;;;;;18.80;100089.00;;;;10466963;28;20200;-78
2021/07/05 21:05:15;;;;;;;1.73;1.30;;;;;18.60;100103.00;;;;10466638;28;20580;-78
2021/07/05 21:10:17;;;;;;;2.17;1.75;;;;;18.50;100089.00;;;;10466379;28;20193;-78
2021/07/05 21:15:19;;;;;;;3.78;1.70;;;;;18.30;100069.00;;;;10449749;28;20216;-78
2021/07/05 21:20:20;;;;;;;2.15;1.55;;;;;18.20;100067.00;;;;10453681;28;20252;-78
2021/07/05 21:25:22;;;;;;;2.80;1.77;;;;;18.20;100055.00;;;;10502922;28;20185;-78
2021/07/05 21:30:24;;;;;;;2.80;1.50;;;;;18.20;100067.00;;;;10498431;28;20189;-78
2021/07/05 21:35:27;;;;;;;3.22;1.30;;;;;18.30;100061.00;;;;10498447;28;20224;-78
2021/07/05 21:40:29;;;;;;;2.33;1.30;;;;;18.30;100059.00;;;;10530843;28;20551;-78
2021/07/05 21:45:31;;;;;;;2.55;1.60;;;;;18.30;100054.00;;;;10497847;28;20655;-78
2021/07/05 21:50:33;;;;;;;2.20;1.35;;;;;18.40;100059.00;;;;10497894;28;20193;-78
2021/07/05 21:55:35;;;;;;;3.92;1.48;;;;;18.40;100056.00;;;;10488821;28;20210;-78
2021/07/05 22:00:38;;;;;;;3.47;1.63;;;;;18.40;100049.00;;;;10455853;28;20209;-78
2021/07/05 22:05:40;;;;;;;1.55;1.45;;;;;18.40;100038.00;;;;10472481;28;20220;-78
2021/07/05 22:10:42;;;;;;;3.78;1.30;;;;;18.40;100039.00;;;;10455541;28;20272;-78
2021/07/05 22:15:44;;;;;;;2.33;1.23;;;;;18.40;100040.00;;;;10471713;28;20206;-79
2021/07/05 22:20:46;;;;;;;3.50;1.77;;;;;18.40;100028.00;;;;10471664;28;20193;-78
2021/07/05 22:25:48;;;;;;;3.17;1.45;;;;;18.40;100027.00;;;;10472140;28;20244;-78
2021/07/05 22:30:50;;;;;;;1.98;1.50;;;;;18.40;100025.00;;;;10486730;28;20194;-78
2021/07/05 22:35:52;;;;;;;5.43;1.30;;;;;18.30;100022.00;;;;10471146;28;20206;-78
2021/07/05 22:40:54;;;;;;;1.90;1.17;;;;;18.20;100016.00;;;;10487751;28;20542;-78
2021/07/05 22:45:58;;;;;;;4.03;1.00;;;;;18.20;100017.00;;;;10487896;28;20189;-77
2021/07/05 22:51:00;;;;;;;1.73;1.05;;;;;18.10;100008.00;;;;10504256;28;20193;-79
2021/07/05 22:56:02;;;;;;;0.90;0.90;;;;;18.00;99977.00;;;;10470545;28;20220;-79
2021/07/05 23:01:04;;;;;;;2.10;1.30;;;;;17.80;99958.00;;;;10470477;28;20660;-79
2021/07/05 23:06:06;;;;;;;1.00;1.00;;;;;17.60;99944.00;;;;10469809;28;20178;-78
2021/07/05 23:11:08;;;;;;;1.45;1.20;;;;;17.60;99940.00;;;;10469078;28;20189;-78
2021/07/05 23:16:10;;;;;;;2.70;1.27;;;;;17.60;99930.00;;;;10485590;28;20213;-78
2021/07/05 23:21:12;;;;;;;2.63;0.95;;;;;17.60;99922.00;;;;10435871;28;20560;-78
2021/07/05 23:26:14;;;;;;;3.17;1.60;;;;;17.60;99933.00;;;;10473517;28;20193;-79
2021/07/05 23:31:16;;;;;;;2.45;1.20;;;;;17.60;99923.00;;;;10485951;28;20232;-79
2021/07/05 23:36:38;;;;;;;1.00;1.00;;;;;17.60;99914.00;;;;10485643;28;20209;-79
2021/07/05 23:41:40;;;;;;;1.77;1.23;;;;;17.50;99892.00;;;;10468259;28;20203;-78
2021/07/05 23:46:42;;;;;;;2.03;1.20;;;;;17.50;99899.00;;;;10468447;28;20232;-79
2021/07/05 23:51:45;;;;;;;3.78;1.25;;;;;17.40;99904.00;;;;10502134;28;20194;-79
2021/07/05 23:56:47;;;;;;;1.30;1.20;;;;;17.30;99901.00;;;;10471221;28;20263;-79
